Time;durP1;ratioP1;P1;durP2;ratioP2;P2;SDS_P1;SDS_P2;PMS_P1;PMS_P2;Temp;Humidity;BMP_temperature;BMP_pressure;BME280_temperature;BME280_humidity;BME280_pressure;Samples;Min_cycle;Max_cycle;Signal;HPM_P1;HPM_P2
2022/12/13 00:01:20;;;;;;;79.00;38.85;;;;;;;-2.58;100.00;100912.28;5001832;28;20053;-74
2022/12/13 00:03:47;;;;;;;68.88;35.75;;;;;;;-2.62;100.00;100904.00;5013461;28;20134;-74
2022/12/13 00:06:14;;;;;;;67.93;36.45;;;;;;;-2.63;100.00;100907.00;5015776;28;20140;-74
2022/12/13 00:08:40;;;;;;;74.38;37.03;;;;;;;-2.68;100.00;100910.63;5011931;28;20056;-72
2022/12/13 00:11:10;;;;;;;71.25;36.80;;;;;;;-2.70;100.00;100910.94;5014623;28;20049;-74
2022/12/13 00:13:37;;;;;;;72.75;35.05;;;;;;;-2.78;100.00;100900.00;5006938;28;20068;-75
2022/12/13 00:16:07;;;;;;;68.13;34.95;;;;;;;-2.71;100.00;100903.09;5000360;28;20046;-72
2022/12/13 00:18:33;;;;;;;73.25;35.63;;;;;;;-2.69;100.00;100904.41;5011717;28;20050;-75
2022/12/13 00:21:06;;;;;;;68.82;35.10;;;;;;;-2.69;100.00;100893.56;5016665;28;20057;-73
2022/12/13 00:23:33;;;;;;;70.07;35.75;;;;;;;-2.81;100.00;100901.44;5013897;28;20779;-73
2022/12/13 00:26:09;;;;;;;73.10;36.88;;;;;;;-2.80;100.00;100896.81;5010121;28;20054;-75
2022/12/13 00:28:36;;;;;;;66.47;36.03;;;;;;;-2.79;100.00;100893.00;5005070;28;20041;-72
2022/12/13 00:31:03;;;;;;;76.45;37.78;;;;;;;-2.79;100.00;100891.09;5018833;28;20045;-73
2022/12/13 00:33:50;;;;;;;80.38;37.92;;;;;;;-2.78;100.00;100891.88;5013532;28;20896;-73
2022/12/13 00:36:17;;;;;;;71.50;35.17;;;;;;;-2.96;100.00;100865.75;5010422;28;20053;-73
2022/12/13 00:38:44;;;;;;;65.93;33.97;;;;;;;-2.83;100.00;100886.59;5009804;28;20045;-73
2022/12/13 00:41:11;;;;;;;71.82;36.90;;;;;;;-2.88;100.00;100884.00;5007568;28;20682;-73
2022/12/13 00:43:38;;;;;;;66.20;32.58;;;;;;;-2.91;100.00;100881.88;5012277;28;20053;-74
2022/12/13 00:46:07;;;;;;;69.68;36.08;;;;;;;-2.96;100.00;100877.38;5010589;28;20057;-73
2022/12/13 00:48:34;;;;;;;68.18;34.35;;;;;;;-2.98;100.00;100882.31;5009919;28;20049;-73
2022/12/13 00:51:05;;;;;;;68.68;34.60;;;;;;;-3.00;100.00;100872.91;5012737;28;20052;-73
2022/12/13 00:53:31;;;;;;;65.50;34.22;;;;;;;-3.04;100.00;100874.59;5012218;28;20057;-72
2022/12/13 00:55:58;;;;;;;72.10;35.03;;;;;;;-3.05;100.00;100876.50;5014994;28;20512;-71
2022/12/13 00:58:24;;;;;;;69.63;35.88;;;;;;;-3.09;100.00;100861.16;5014371;28;20565;-74
2022/12/13 01:00:51;;;;;;;70.35;35.22;;;;;;;-3.07;100.00;100867.09;5017363;28;20092;-72
2022/12/13 01:03:24;;;;;;;72.30;36.15;;;;;;;-3.08;100.00;100873.59;5015837;28;20049;-73
2022/12/13 01:05:50;;;;;;;66.32;34.63;;;;;;;-3.11;100.00;100874.19;5013427;28;20046;-72
2022/12/13 01:08:37;;;;;;;68.70;33.42;;;;;;;-3.15;100.00;100873.19;5003570;28;20046;-73
2022/12/13 01:11:05;;;;;;;72.32;34.58;;;;;;;-3.16;100.00;100868.91;5012810;28;20041;-71
2022/12/13 01:13:32;;;;;;;66.80;34.10;;;;;;;-3.15;100.00;100868.59;5010180;28;20173;-75
2022/12/13 01:16:02;;;;;;;65.95;33.42;;;;;;;-3.18;100.00;100862.97;5010189;28;20048;-74
2022/12/13 01:18:28;;;;;;;64.57;32.25;;;;;;;-3.18;100.00;100877.31;5005649;28;20050;-73
2022/12/13 01:21:11;;;;;;;72.55;34.08;;;;;;;-3.20;100.00;100876.81;5009601;28;20473;-73
2022/12/13 01:23:38;;;;;;;67.57;33.28;;;;;;;-3.20;100.00;100871.41;5006881;28;20057;-74
2022/12/13 01:26:08;;;;;;;68.85;35.03;;;;;;;-3.24;100.00;100880.44;5014655;28;20060;-74
2022/12/13 01:28:35;;;;;;;66.55;33.22;;;;;;;-3.31;100.00;100878.13;5015572;28;20096;-72
2022/12/13 01:31:08;;;;;;;67.10;33.63;;;;;;;-3.33;100.00;100874.13;5014324;28;20076;-72
2022/12/13 01:33:35;;;;;;;71.30;34.30;;;;;;;-3.33;100.00;100884.94;5016172;28;20061;-74
2022/12/13 01:36:08;;;;;;;73.05;33.67;;;;;;;-3.30;100.00;100887.06;5016434;28;20053;-74
2022/12/13 01:38:34;;;;;;;63.15;32.47;;;;;;;-3.32;100.00;100887.34;5011376;28;20045;-73
2022/12/13 01:41:05;;;;;;;65.75;35.00;;;;;;;-3.31;100.00;100888.16;5011802;28;20054;-73
2022/12/13 01:43:43;;;;;;;73.15;34.78;;;;;;;-3.33;100.00;100887.66;5013169;28;20049;-73
2022/12/13 01:46:10;;;;;;;61.13;34.08;;;;;;;-3.33;100.00;100893.06;5019880;28;20061;-70
2022/12/13 01:48:43;;;;;;;72.78;35.38;;;;;;;-3.38;100.00;100885.03;5014370;28;20801;-75
2022/12/13 01:51:14;;;;;;;70.50;33.88;;;;;;;-3.36;100.00;100893.66;5013638;28;20057;-72
2022/12/13 01:53:43;;;;;;;67.85;34.75;;;;;;;-3.39;100.00;100889.66;5016893;28;20053;-71
2022/12/13 01:56:18;;;;;;;73.55;34.30;;;;;;;-3.38;100.00;100901.25;5018640;28;20518;-72
2022/12/13 01:58:47;;;;;;;67.32;34.13;;;;;;;-3.41;100.00;100891.84;5014139;28;20045;-72
2022/12/13 02:01:14;;;;;;;68.55;33.92;;;;;;;-3.46;100.00;100888.44;5015141;28;20081;-72
2022/12/13 02:03:41;;;;;;;69.68;34.00;;;;;;;-3.48;100.00;100891.44;5012354;28;20111;-71
2022/12/13 02:06:14;;;;;;;70.55;34.53;;;;;;;-3.50;100.00;100893.69;5016910;28;20053;-70
2022/12/13 02:08:43;;;;;;;68.97;34.65;;;;;;;-3.51;100.00;100894.75;5011472;28;20060;-75
2022/12/13 02:11:10;;;;;;;68.20;33.00;;;;;;;-3.51;100.00;100891.25;5014011;28;20053;-73
2022/12/13 02:13:37;;;;;;;64.70;33.13;;;;;;;-3.55;100.00;100890.22;5014026;28;20100;-73
2022/12/13 02:16:22;;;;;;;69.13;32.95;;;;;;;-3.54;100.00;100891.88;5010913;28;20053;-74
2022/12/13 02:18:56;;;;;;;62.10;31.55;;;;;;;-3.55;100.00;100890.22;5014174;28;20135;-72
2022/12/13 02:22:00;;;;;;;65.93;31.25;;;;;;;-3.64;100.00;100878.53;5012981;28;20073;-72
2022/12/13 02:24:38;;;;;;;62.05;32.00;;;;;;;-3.54;100.00;100895.34;5013618;28;20045;-72
2022/12/13 02:27:12;;;;;;;65.38;33.97;;;;;;;-3.56;100.00;100894.88;5011925;28;20136;-74
2022/12/13 02:30:00;;;;;;;65.00;31.25;;;;;;;-3.57;100.00;100892.47;5011055;28;20045;-71
2022/12/13 02:32:37;;;;;;;64.32;32.25;;;;;;;-3.63;100.00;100889.06;5001460;28;20181;-72
2022/12/13 02:35:09;;;;;;;63.92;32.65;;;;;;;-3.70;100.00;100882.41;5012946;28;20049;-74
2022/12/13 02:37:50;;;;;;;71.07;34.03;;;;;;;-3.66;100.00;100888.84;5020334;28;20057;-75
2022/12/13 02:40:25;;;;;;;71.22;34.05;;;;;;;-3.64;100.00;100883.94;5011602;28;20064;-74
2022/12/13 02:43:01;;;;;;;71.15;32.42;;;;;;;-3.66;100.00;100883.41;5016864;28;21209;-74
2022/12/13 02:45:37;;;;;;;66.43;32.13;;;;;;;-3.69;100.00;100878.59;5013304;28;20060;-72
2022/12/13 02:48:06;;;;;;;68.93;31.50;;;;;;;-3.71;100.00;100875.41;5010857;28;20049;-72
2022/12/13 02:50:34;;;;;;;67.72;33.50;;;;;;;-3.80;100.00;100863.69;5018422;28;20061;-74
2022/12/13 02:53:02;;;;;;;66.10;33.28;;;;;;;-3.79;100.00;100878.78;5008763;28;20854;-74
2022/12/13 02:55:28;;;;;;;72.75;33.67;;;;;;;-3.88;100.00;100869.78;5005397;28;20049;-74
2022/12/13 02:57:55;;;;;;;68.68;33.58;;;;;;;-3.86;100.00;100867.56;5012847;28;20076;-73
2022/12/13 03:00:29;;;;;;;74.05;33.78;;;;;;;-3.85;100.00;100869.97;5012749;28;20064;-72
2022/12/13 03:03:17;;;;;;;66.65;32.05;;;;;;;-3.88;100.00;100872.50;5011290;28;20046;-72
2022/12/13 03:09:09;;;;;;;67.50;32.60;;;;;;;-3.86;100.00;100871.09;5010243;28;20052;-73
2022/12/13 03:15:07;;;;;;;66.25;31.92;;;;;;;-3.91;100.00;100867.69;5010178;28;20049;-73
2022/12/13 03:17:40;;;;;;;64.18;30.10;;;;;;;-3.90;100.00;100869.28;5011724;28;20064;-70
2022/12/13 03:20:08;;;;;;;62.85;30.92;;;;;;;-3.94;100.00;100865.56;5027734;28;20429;-69
2022/12/13 03:22:49;;;;;;;65.22;31.65;;;;;;;-4.04;100.00;100860.34;5028283;28;20057;-73
2022/12/13 03:25:16;;;;;;;66.75;32.75;;;;;;;-3.99;100.00;100865.63;5027137;28;20091;-71
2022/12/13 03:27:57;;;;;;;67.65;30.73;;;;;;;-3.98;100.00;100872.69;5028004;28;20061;-71
2022/12/13 03:30:26;;;;;;;62.80;31.13;;;;;;;-3.98;100.00;100870.75;5026886;28;20104;-71
2022/12/13 03:32:53;;;;;;;61.63;29.92;;;;;;;-3.98;100.00;100861.88;5027779;28;20058;-71
2022/12/13 03:35:19;;;;;;;66.22;32.85;;;;;;;-3.96;100.00;100862.34;5028401;28;20096;-71
2022/12/13 03:37:48;;;;;;;67.75;33.85;;;;;;;-4.04;100.00;100860.34;5028523;28;20045;-73
2022/12/13 03:40:15;;;;;;;66.68;33.38;;;;;;;-4.10;100.00;100856.94;5032185;28;20053;-71
2022/12/13 03:42:41;;;;;;;60.42;30.15;;;;;;;-4.27;100.00;100855.88;5027065;28;20051;-70
2022/12/13 03:45:08;;;;;;;64.47;31.75;;;;;;;-4.23;100.00;100859.59;5028787;28;20056;-70
2022/12/13 03:47:34;;;;;;;71.07;34.00;;;;;;;-4.33;100.00;100843.53;5021537;28;20049;-71
2022/12/13 03:50:01;;;;;;;65.22;31.13;;;;;;;-4.17;100.00;100856.50;5027265;28;20041;-71
2022/12/13 03:52:50;;;;;;;68.30;31.73;;;;;;;-4.14;100.00;100857.81;5022257;28;20053;-72
2022/12/13 03:55:17;;;;;;;62.78;29.58;;;;;;;-4.19;100.00;100852.50;5028362;28;20052;-71
2022/12/13 03:57:44;;;;;;;68.85;32.47;;;;;;;-4.16;100.00;100854.59;5014260;28;20062;-70
2022/12/13 04:00:11;;;;;;;58.33;30.02;;;;;;;-4.17;100.00;100853.81;5022567;28;20057;-72
2022/12/13 04:02:38;;;;;;;65.43;30.25;;;;;;;-4.18;100.00;100854.09;5016180;28;20049;-72
2022/12/13 04:05:05;;;;;;;65.10;31.25;;;;;;;-4.18;100.00;100856.81;5027064;28;20081;-72
2022/12/13 04:07:31;;;;;;;59.58;28.42;;;;;;;-4.23;100.00;100849.59;5027718;28;20542;-70
2022/12/13 04:10:00;;;;;;;59.47;28.75;;;;;;;-4.30;100.00;100838.38;5030361;28;20665;-72
2022/12/13 04:15:14;;;;;;;65.57;32.80;;;;;;;-4.20;100.00;100846.28;5028456;28;20096;-71
2022/12/13 04:17:41;;;;;;;65.30;31.15;;;;;;;-4.24;100.00;100850.69;5031904;28;20091;-71
2022/12/13 04:20:08;;;;;;;68.88;34.08;;;;;;;-4.25;100.00;100859.09;5010641;28;20049;-71
2022/12/13 04:22:35;;;;;;;61.78;30.42;;;;;;;-4.24;100.00;100857.97;5030912;28;20049;-70
2022/12/13 04:25:02;;;;;;;63.97;32.10;;;;;;;-4.23;100.00;100862.28;5023545;28;20528;-71
2022/12/13 04:27:29;;;;;;;63.05;31.30;;;;;;;-4.25;100.00;100850.97;5028015;28;20057;-70
2022/12/13 04:29:56;;;;;;;62.90;30.80;;;;;;;-4.27;100.00;100845.88;5026723;28;20057;-71
2022/12/13 04:32:22;;;;;;;56.38;29.77;;;;;;;-4.22;100.00;100842.28;5027574;28;20666;-72
2022/12/13 04:34:52;;;;;;;68.15;31.08;;;;;;;-4.24;100.00;100839.88;5027650;28;20053;-71
2022/12/13 04:37:27;;;;;;;60.38;30.23;;;;;;;-4.23;100.00;100846.06;5031234;28;20053;-71
2022/12/13 04:39:53;;;;;;;63.40;32.13;;;;;;;-4.26;100.00;100838.59;5027473;28;20046;-71
2022/12/13 04:42:26;;;;;;;64.53;30.52;;;;;;;-4.31;100.00;100839.47;5027908;28;20115;-70
2022/12/13 04:44:53;;;;;;;64.47;29.42;;;;;;;-4.34;100.00;100834.66;5027516;28;20124;-71
2022/12/13 04:47:19;;;;;;;61.92;32.28;;;;;;;-4.32;100.00;100829.75;5026063;28;20672;-69
2022/12/13 04:49:46;;;;;;;63.30;30.60;;;;;;;-4.37;100.00;100829.03;5041890;28;20053;-72
2022/12/13 04:52:13;;;;;;;64.97;30.98;;;;;;;-4.35;100.00;100835.75;5027902;28;20164;-72
2022/12/13 04:54:48;;;;;;;66.85;31.65;;;;;;;-4.35;100.00;100826.84;5024605;28;20049;-70
2022/12/13 04:57:21;;;;;;;59.97;30.08;;;;;;;-4.37;100.00;100826.31;5027956;28;20049;-73
2022/12/13 04:59:48;;;;;;;70.60;32.58;;;;;;;-4.39;100.00;100828.53;5034379;28;20041;-70
2022/12/13 05:02:14;;;;;;;60.85;30.75;;;;;;;-4.37;100.00;100829.03;5021226;28;20064;-72
2022/12/13 05:04:49;;;;;;;58.35;31.23;;;;;;;-4.36;100.00;100819.84;5019751;28;20049;-72
2022/12/13 05:07:20;;;;;;;63.70;31.88;;;;;;;-4.36;100.00;100826.03;5032306;28;20057;-72
2022/12/13 05:09:47;;;;;;;62.08;31.60;;;;;;;-4.35;100.00;100821.44;5016171;28;20045;-70
2022/12/13 05:12:13;;;;;;;63.83;31.73;;;;;;;-4.38;100.00;100819.34;5011421;28;20443;-72
2022/12/13 05:14:49;;;;;;;;;;;;;;;-4.44;100.00;100823.19;5027809;28;20065;-69
2022/12/13 05:17:15;;;;;;;63.72;29.27;;;;;;;-4.43;100.00;100819.41;5031218;28;20366;-71
2022/12/13 05:19:42;;;;;;;66.88;30.40;;;;;;;-4.44;100.00;100829.41;5022602;28;20042;-71
2022/12/13 05:22:14;;;;;;;64.85;30.58;;;;;;;-4.47;100.00;100813.81;5049946;28;20049;-72
2022/12/13 05:24:45;;;;;;;63.38;30.95;;;;;;;-4.49;100.00;100821.38;5028506;28;20498;-71
2022/12/13 05:27:12;;;;;;;69.30;31.42;;;;;;;-4.49;100.00;100812.50;5030618;28;20053;-70
2022/12/13 05:29:54;;;;;;;63.83;31.25;;;;;;;-4.54;100.00;100812.56;5030083;28;20049;-70
2022/12/13 05:32:37;;;;;;;67.50;30.90;;;;;;;-4.56;100.00;100817.47;5039793;28;20149;-75
2022/12/13 05:35:14;;;;;;;63.80;29.52;;;;;;;-4.55;100.00;100816.38;5032219;28;20073;-73
2022/12/13 05:37:52;;;;;;;63.25;30.67;;;;;;;-4.61;100.00;100812.16;5031150;28;20160;-71
2022/12/13 05:40:22;;;;;;;67.40;32.30;;;;;;;-4.58;100.00;100816.97;5029942;28;20057;-71
2022/12/13 05:42:48;;;;;;;63.45;29.85;;;;;;;-4.58;100.00;100823.16;5030936;28;20053;-69
2022/12/13 05:45:16;;;;;;;66.68;31.58;;;;;;;-4.59;100.00;100821.53;5029567;28;20062;-70
2022/12/13 05:47:44;;;;;;;66.32;30.33;;;;;;;-4.63;100.00;100815.13;5029696;28;20118;-71
2022/12/13 05:50:11;;;;;;;62.10;30.33;;;;;;;-4.65;100.00;100811.13;5029765;28;20053;-71
2022/12/13 05:52:37;;;;;;;72.88;32.70;;;;;;;-4.67;100.00;100818.72;5030447;28;20506;-73
2022/12/13 05:55:04;;;;;;;72.20;32.53;;;;;;;-4.66;100.00;100815.72;5049828;28;20049;-70
2022/12/13 05:57:31;;;;;;;64.15;31.33;;;;;;;-4.64;100.00;100818.94;5036338;28;20045;-69
2022/12/13 05:59:59;;;;;;;65.75;31.80;;;;;;;-4.64;100.00;100810.03;5021810;28;20056;-70
2022/12/13 06:02:26;;;;;;;65.53;31.38;;;;;;;-4.61;100.00;100812.97;5013741;28;20054;-71
2022/12/13 06:04:53;;;;;;;65.40;30.08;;;;;;;-4.58;100.00;100817.78;5046549;28;20107;-70
2022/12/13 06:07:19;;;;;;;73.57;32.50;;;;;;;-4.59;100.00;100813.44;5036121;28;20056;-71
2022/12/13 06:09:46;;;;;;;67.25;32.53;;;;;;;-4.62;100.00;100808.66;5023091;28;20065;-70
2022/12/13 06:12:14;;;;;;;62.38;30.02;;;;;;;-4.73;100.00;100804.50;5008482;28;20072;-73
2022/12/13 06:14:58;;;;;;;64.25;29.90;;;;;;;-4.75;100.00;100814.00;5020036;28;20495;-71
2022/12/13 06:17:34;;;;;;;69.90;33.10;;;;;;;-4.73;100.00;100820.69;5029552;28;20053;-71
2022/12/13 06:20:01;;;;;;;72.13;32.67;;;;;;;-4.68;100.00;100817.94;5028679;28;20528;-72
2022/12/13 06:22:47;;;;;;;61.78;31.00;;;;;;;-4.65;100.00;100817.34;5028594;28;20053;-71
2022/12/13 06:25:14;;;;;;;62.38;30.95;;;;;;;-4.70;100.00;100822.03;5034797;28;20060;-71
2022/12/13 06:27:57;;;;;;;82.07;37.10;;;;;;;-4.78;100.00;100814.56;5028970;28;20888;-70
2022/12/13 06:30:26;;;;;;;58.22;31.13;;;;;;;-4.73;100.00;100814.50;5029316;28;20060;-70
2022/12/13 06:32:53;;;;;;;64.22;30.63;;;;;;;-4.69;100.00;100823.63;5029201;28;20046;-73
2022/12/13 06:35:19;;;;;;;70.47;33.25;;;;;;;-4.69;100.00;100815.53;5035981;28;20057;-72
2022/12/13 06:37:58;;;;;;;64.38;30.05;;;;;;;-4.62;100.00;100821.34;5027030;28;20053;-71
2022/12/13 06:40:29;;;;;;;67.78;29.42;;;;;;;-4.61;100.00;100815.66;5009023;28;20064;-70
2022/12/13 06:42:55;;;;;;;68.70;31.67;;;;;;;-4.59;100.00;100815.38;5019263;28;20132;-72
2022/12/13 06:45:22;;;;;;;65.65;31.33;;;;;;;-4.65;100.00;100817.34;5027810;28;20510;-71
2022/12/13 06:47:49;;;;;;;66.05;30.83;;;;;;;-4.67;100.00;100818.72;5029821;28;20064;-71
2022/12/13 06:50:15;;;;;;;65.25;31.83;;;;;;;-4.73;100.00;100815.31;5026680;28;20529;-72
2022/12/13 06:52:44;;;;;;;67.32;32.33;;;;;;;-4.75;100.00;100814.81;5026854;28;20608;-70
2022/12/13 06:55:11;;;;;;;64.18;31.45;;;;;;;-4.80;100.00;100816.78;5028826;28;20057;-72
2022/12/13 06:57:37;;;;;;;64.95;31.77;;;;;;;-4.81;100.00;100821.38;5034883;28;20049;-70
2022/12/13 07:00:07;;;;;;;68.32;32.88;;;;;;;-4.78;100.00;100815.38;5019573;28;20053;-72
2022/12/13 07:02:34;;;;;;;62.53;32.45;;;;;;;-4.77;100.00;100814.28;5025676;28;20069;-72
2022/12/13 07:05:01;;;;;;;65.88;31.92;;;;;;;-4.76;100.00;100812.41;5029536;28;20052;-70
2022/12/13 07:07:27;;;;;;;64.70;31.88;;;;;;;-4.76;100.00;100818.59;5028492;28;20421;-68
2022/12/13 07:09:54;;;;;;;67.80;33.72;;;;;;;-4.85;100.00;100811.44;5028371;28;20490;-68
2022/12/13 07:12:21;;;;;;;65.72;31.73;;;;;;;-4.85;100.00;100816.84;5028533;28;20045;-71
2022/12/13 07:14:48;;;;;;;73.68;36.30;;;;;;;-4.90;100.00;100815.03;5029164;28;20711;-68
2022/12/13 07:17:14;;;;;;;61.95;31.48;;;;;;;-4.91;100.00;100815.31;5030852;28;20052;-71
2022/12/13 07:20:01;;;;;;;66.25;31.65;;;;;;;-4.94;100.00;100824.81;5027568;28;20044;-72
2022/12/13 07:22:28;;;;;;;67.70;32.65;;;;;;;-4.99;100.00;100816.78;5026388;28;20037;-70
2022/12/13 07:25:00;;;;;;;66.40;32.50;;;;;;;-4.99;100.00;100815.97;5020482;28;20065;-71
2022/12/13 07:27:26;;;;;;;60.80;30.45;;;;;;;-4.94;100.00;100815.88;5028970;28;20041;-71
2022/12/13 07:29:53;;;;;;;73.00;31.92;;;;;;;-4.95;100.00;100817.81;5027572;28;20046;-71
2022/12/13 07:32:19;;;;;;;64.63;30.40;;;;;;;-4.93;100.00;100818.31;5012049;28;20056;-72
2022/12/13 07:34:46;;;;;;;60.63;30.45;;;;;;;-4.91;100.00;100820.72;5028327;28;20529;-71
2022/12/13 07:37:12;;;;;;;64.38;31.40;;;;;;;-4.87;100.00;100821.75;5025445;28;20757;-73
2022/12/13 07:39:56;;;;;;;61.08;32.25;;;;;;;-4.84;100.00;100821.13;5027022;28;20100;-71
2022/12/13 07:42:29;;;;;;;63.40;33.40;;;;;;;-4.84;100.00;100813.84;5028623;28;20053;-71
2022/12/13 07:44:55;;;;;;;63.85;31.95;;;;;;;-4.82;100.00;100821.66;5028642;28;20056;-72
2022/12/13 07:47:22;;;;;;;70.85;32.78;;;;;;;-4.79;100.00;100818.38;5016831;28;20050;-74
2022/12/13 07:49:48;;;;;;;68.85;34.03;;;;;;;-4.77;100.00;100825.09;5025045;28;20076;-74
2022/12/13 07:52:15;;;;;;;69.00;31.15;;;;;;;-4.78;100.00;100822.69;5018817;28;20050;-72
2022/12/13 07:54:41;;;;;;;62.17;32.72;;;;;;;-4.77;100.00;100824.28;5036643;28;20041;-72
2022/12/13 07:57:08;;;;;;;68.05;32.72;;;;;;;-4.79;100.00;100815.69;5025132;28;20152;-72
2022/12/13 07:59:34;;;;;;;68.07;32.15;;;;;;;-4.74;100.00;100823.69;5027521;28;20041;-72
2022/12/13 08:02:01;;;;;;;72.95;36.03;;;;;;;-4.74;100.00;100826.38;5030394;28;20065;-74
2022/12/13 08:04:28;;;;;;;63.55;31.73;;;;;;;-4.71;100.00;100834.72;5048255;28;20056;-73
2022/12/13 08:07:07;;;;;;;95.90;42.30;;;;;;;-4.67;100.00;100840.31;5038954;28;20152;-74
2022/12/13 08:09:34;;;;;;;80.50;38.22;;;;;;;-4.66;100.00;100839.25;5029435;28;20049;-73
2022/12/13 08:12:01;;;;;;;72.60;32.13;;;;;;;-4.61;100.00;100839.97;5012086;28;20534;-73
2022/12/13 08:14:27;;;;;;;61.83;31.67;;;;;;;-4.58;100.00;100843.97;5015249;28;20057;-72
2022/12/13 08:16:54;;;;;;;75.20;35.17;;;;;;;-4.53;100.00;100839.28;5034155;28;20042;-74
2022/12/13 08:19:20;;;;;;;79.10;39.35;;;;;;;-4.49;100.00;100836.81;5027083;28;20037;-72
2022/12/13 08:21:47;;;;;;;81.32;38.65;;;;;;;-4.45;100.00;100837.81;5027661;28;20413;-73
2022/12/13 08:24:28;;;;;;;76.93;37.88;;;;;;;-4.40;100.00;100840.41;5025296;28;20053;-73
2022/12/13 08:26:59;;;;;;;84.35;40.00;;;;;;;-4.34;100.00;100837.34;5012617;28;20099;-72
2022/12/13 08:29:28;;;;;;;85.20;40.95;;;;;;;-4.31;100.00;100838.66;5018099;28;20513;-72
2022/12/13 08:32:07;;;;;;;76.50;39.35;;;;;;;-4.30;100.00;100841.06;5027003;28;20057;-72
2022/12/13 08:34:34;;;;;;;73.65;35.90;;;;;;;-4.28;100.00;100836.19;5034315;28;20056;-72
2022/12/13 08:37:00;;;;;;;74.88;36.13;;;;;;;-4.20;100.00;100837.38;5046765;28;20053;-73
2022/12/13 08:39:34;;;;;;;74.78;34.75;;;;;;;-4.14;100.00;100847.00;5044224;28;20048;-72
2022/12/13 08:42:03;;;;;;;71.70;35.67;;;;;;;-4.09;100.00;100838.81;5031079;28;20099;-73
2022/12/13 08:44:43;;;;;;;73.43;35.65;;;;;;;-4.04;100.00;100839.53;5017047;28;20046;-74
2022/12/13 08:47:10;;;;;;;71.85;35.75;;;;;;;-3.99;100.00;100842.13;5047283;28;20049;-72
2022/12/13 08:49:36;;;;;;;73.85;35.88;;;;;;;-3.93;100.00;100842.84;5029961;28;20072;-74
2022/12/13 08:52:03;;;;;;;76.45;38.60;;;;;;;-3.94;100.00;100836.66;5031569;28;20055;-71
2022/12/13 08:54:32;;;;;;;75.53;37.95;;;;;;;-3.91;100.00;100841.44;5030927;28;20056;-74
2022/12/13 08:56:59;;;;;;;78.93;37.53;;;;;;;-3.85;100.00;100847.56;5031278;28;20092;-71
2022/12/13 08:59:26;;;;;;;70.20;34.55;;;;;;;-3.77;100.00;100841.47;5032087;28;20045;-72
2022/12/13 09:01:52;;;;;;;77.65;35.38;;;;;;;-3.63;100.00;100839.56;5038565;28;20045;-73
2022/12/13 09:04:22;;;;;;;81.85;37.25;;;;;;;-3.52;100.00;100849.88;5031190;28;20498;-71
2022/12/13 09:06:58;;;;;;;72.97;36.55;;;;;;;-3.39;100.00;100850.97;5031202;28;20498;-75
2022/12/13 09:09:28;;;;;;;73.75;36.20;;;;;;;-3.33;100.00;100855.19;5014471;28;20739;-73
2022/12/13 09:11:55;;;;;;;68.95;34.10;;;;;;;-3.21;100.00;100855.47;5030368;28;20045;-72
2022/12/13 09:14:26;;;;;;;74.28;34.40;;;;;;;-3.09;100.00;100851.16;5030308;28;20418;-73
2022/12/13 09:17:01;;;;;;;70.13;33.22;;;;;;;-2.97;100.00;100851.41;5018427;28;20049;-72
2022/12/13 09:19:29;;;;;;;64.60;33.80;;;;;;;-2.84;100.00;100850.59;5016933;28;20577;-72
2022/12/13 09:22:03;;;;;;;52.88;27.30;;;;;;;-2.71;100.00;100851.66;5036477;28;20130;-72
2022/12/13 09:24:30;;;;;;;73.75;34.67;;;;;;;-2.58;100.00;100839.16;5029697;28;20053;-73
2022/12/13 09:27:02;;;;;;;73.53;33.90;;;;;;;-2.44;100.00;100854.25;5036781;28;20115;-71
2022/12/13 09:29:37;;;;;;;65.55;33.05;;;;;;;-2.31;100.00;100847.16;5024687;28;20156;-72
2022/12/13 09:32:04;;;;;;;72.57;36.22;;;;;;;-2.23;100.00;100833.66;5010560;28;20058;-72
2022/12/13 09:34:31;;;;;;;64.57;33.42;;;;;;;-1.98;100.00;100851.19;5028725;28;20081;-74
2022/12/13 09:36:59;;;;;;;65.85;31.77;;;;;;;-1.83;100.00;100851.59;5030488;28;20698;-72
2022/12/13 09:39:28;;;;;;;64.45;33.72;;;;;;;-1.69;100.00;100851.53;5029367;28;20411;-71
2022/12/13 09:41:58;;;;;;;70.00;32.90;;;;;;;-1.56;100.00;100856.84;5021554;28;20382;-71
2022/12/13 09:44:33;;;;;;;60.72;31.45;;;;;;;-1.43;100.00;100855.13;5028899;28;20653;-73
2022/12/13 09:47:25;;;;;;;59.22;30.02;;;;;;;-1.32;100.00;100857.22;5030559;28;20049;-72
2022/12/13 09:50:06;;;;;;;65.30;31.02;;;;;;;-1.21;100.00;100860.47;5028546;28;20053;-71
2022/12/13 09:52:42;;;;;;;64.82;31.95;;;;;;;-1.19;100.00;100840.03;5029570;28;20053;-74
2022/12/13 09:55:28;;;;;;;63.20;30.50;;;;;;;-1.00;100.00;100853.31;5040096;28;20049;-72
2022/12/13 09:57:57;;;;;;;67.22;30.65;;;;;;;-0.84;100.00;100855.25;5029524;28;20407;-73
2022/12/13 10:00:31;;;;;;;61.30;31.20;;;;;;;-0.71;100.00;100854.31;5030396;28;20049;-69
2022/12/13 10:02:59;;;;;;;60.83;29.25;;;;;;;-0.60;100.00;100850.16;5033213;28;20052;-73
2022/12/13 10:05:34;;;;;;;57.35;28.75;;;;;;;-0.46;100.00;100839.13;5024636;28;20072;-71
2022/12/13 10:08:11;;;;;;;57.65;29.88;;;;;;;-0.31;100.00;100842.16;5029674;28;20053;-71
2022/12/13 10:10:37;;;;;;;63.55;29.38;;;;;;;-0.21;100.00;100832.84;5031443;28;20046;-72
2022/12/13 10:13:35;;;;;;;54.92;27.05;;;;;;;-0.16;100.00;100833.47;5036077;28;20119;-73
2022/12/13 10:16:37;;;;;;;55.03;26.27;;;;;;;0.03;100.00;100833.13;5029094;28;20136;-72
2022/12/13 10:19:22;;;;;;;51.70;25.55;;;;;;;0.18;100.00;100835.31;5028699;28;20135;-71
2022/12/13 10:21:55;;;;;;;57.47;26.27;;;;;;;0.31;100.00;100838.97;5038828;28;20077;-71
2022/12/13 10:24:49;;;;;;;53.63;27.05;;;;;;;0.45;100.00;100825.94;5012245;28;20050;-72
2022/12/13 10:27:36;;;;;;;50.05;25.15;;;;;;;0.56;100.00;100819.78;5042590;28;20449;-73
2022/12/13 10:30:23;;;;;;;45.63;24.55;;;;;;;0.67;100.00;100812.06;5027455;28;20041;-74
2022/12/13 10:32:58;;;;;;;48.10;23.27;;;;;;;0.79;100.00;100823.03;5010796;28;20070;-73
2022/12/13 10:35:31;;;;;;;51.33;25.35;;;;;;;0.92;100.00;100808.38;5023122;28;20045;-74
2022/12/13 10:38:19;;;;;;;52.58;25.67;;;;;;;1.13;100.00;100815.44;5029088;28;20045;-73
2022/12/13 10:40:47;;;;;;;50.15;25.40;;;;;;;1.39;100.00;100810.56;5028486;28;20048;-73
2022/12/13 10:43:16;;;;;;;53.95;25.50;;;;;;;1.57;100.00;100803.84;5021547;28;20061;-72
2022/12/13 10:45:55;;;;;;;53.80;24.70;;;;;;;1.89;100.00;100813.94;5019605;28;20056;-71
2022/12/13 10:48:49;;;;;;;52.85;25.23;;;;;;;3.85;100.00;100808.34;5028375;28;20060;-71
2022/12/13 10:51:19;;;;;;;49.60;23.55;;;;;;;7.08;100.00;100810.47;5025347;28;20056;-71
2022/12/13 10:53:59;;;;;;;54.03;24.58;;;;;;;9.04;99.29;100806.25;5029983;28;20077;-72
2022/12/13 10:56:41;;;;;;;46.05;22.75;;;;;;;9.70;81.11;100810.53;5016621;28;20091;-70
2022/12/13 10:59:23;;;;;;;47.65;23.75;;;;;;;10.23;69.96;100800.44;5027238;28;20164;-70
2022/12/13 11:01:50;;;;;;;43.83;23.58;;;;;;;11.15;70.14;100807.53;5018776;28;20052;-73
2022/12/13 11:04:37;;;;;;;43.80;23.67;;;;;;;10.75;61.43;100796.91;5014526;28;20057;-71
2022/12/13 11:07:22;;;;;;;43.42;21.52;;;;;;;10.05;61.41;100785.75;5027744;28;20053;-71
2022/12/13 11:09:49;;;;;;;39.22;21.65;;;;;;;9.88;62.97;100790.06;5019173;28;20413;-70
2022/12/13 11:12:24;;;;;;;48.95;23.50;;;;;;;10.17;62.84;100775.13;5029301;28;20054;-71
2022/12/13 11:15:05;;;;;;;40.13;21.85;;;;;;;9.97;60.10;100773.91;5028367;28;20051;-74
2022/12/13 11:17:46;;;;;;;41.30;22.35;;;;;;;10.03;62.70;100768.78;5023701;28;20072;-72
2022/12/13 11:20:53;;;;;;;37.90;20.77;;;;;;;10.14;58.09;100764.88;5027690;28;20052;-72
2022/12/13 11:23:43;;;;;;;39.00;20.80;;;;;;;9.62;58.07;100757.22;5034061;28;20049;-70
2022/12/13 11:26:17;;;;;;;39.15;22.10;;;;;;;10.64;59.96;100757.41;5027261;28;20052;-75
2022/12/13 11:28:56;;;;;;;38.22;20.65;;;;;;;11.55;54.04;100756.34;5038709;28;20064;-72
2022/12/13 11:31:32;;;;;;;45.55;21.95;;;;;;;11.73;53.39;100757.88;5026197;28;20979;-73